sensor_id;sensor_type;location;lat;lon;timestamp;P1;durP1;ratioP1;P2;durP2;ratioP2
76758;SDS011;65701;45.588;5.186;2023-07-20T00:00:51;3.00;;;3.00;;
76758;SDS011;65701;45.588;5.186;2023-07-20T00:03:18;3.00;;;3.00;;
76758;SDS011;65701;45.588;5.186;2023-07-20T00:05:50;5.00;;;3.00;;
76758;SDS011;65701;45.588;5.186;2023-07-20T00:08:16;6.50;;;2.75;;
76758;SDS011;65701;45.588;5.186;2023-07-20T00:10:43;3.25;;;3.25;;
76758;SDS011;65701;45.588;5.186;2023-07-20T00:13:09;2.75;;;2.75;;
76758;SDS011;65701;45.588;5.186;2023-07-20T00:15:36;5.75;;;3.00;;
76758;SDS011;65701;45.588;5.186;2023-07-20T00:18:02;5.00;;;4.75;;
76758;SDS011;65701;45.588;5.186;2023-07-20T00:20:29;2.75;;;2.75;;
76758;SDS011;65701;45.588;5.186;2023-07-20T00:22:54;2.00;;;2.00;;
76758;SDS011;65701;45.588;5.186;2023-07-20T00:25:20;2.50;;;2.25;;
76758;SDS011;65701;45.588;5.186;2023-07-20T00:27:46;3.50;;;3.00;;
76758;SDS011;65701;45.588;5.186;2023-07-20T00:30:11;4.25;;;4.25;;
76758;SDS011;65701;45.588;5.186;2023-07-20T00:32:37;6.25;;;4.75;;
76758;SDS011;65701;45.588;5.186;2023-07-20T00:35:03;4.00;;;4.00;;
76758;SDS011;65701;45.588;5.186;2023-07-20T00:37:28;6.50;;;6.50;;
76758;SDS011;65701;45.588;5.186;2023-07-20T00:39:54;8.00;;;7.25;;
76758;SDS011;65701;45.588;5.186;2023-07-20T00:42:20;10.25;;;9.00;;
76758;SDS011;65701;45.588;5.186;2023-07-20T00:44:45;11.50;;;10.00;;
76758;SDS011;65701;45.588;5.186;2023-07-20T00:47:11;12.75;;;9.00;;
76758;SDS011;65701;45.588;5.186;2023-07-20T00:49:37;8.25;;;5.25;;
76758;SDS011;65701;45.588;5.186;2023-07-20T00:52:03;9.50;;;9.00;;
76758;SDS011;65701;45.588;5.186;2023-07-20T00:54:29;10.00;;;10.00;;
76758;SDS011;65701;45.588;5.186;2023-07-20T00:56:55;5.50;;;5.50;;
76758;SDS011;65701;45.588;5.186;2023-07-20T00:59:20;9.25;;;9.25;;
76758;SDS011;65701;45.588;5.186;2023-07-20T01:01:46;11.75;;;8.25;;
76758;SDS011;65701;45.588;5.186;2023-07-20T01:04:12;9.75;;;8.25;;
76758;SDS011;65701;45.588;5.186;2023-07-20T01:15:00;6.50;;;6.50;;
76758;SDS011;65701;45.588;5.186;2023-07-20T01:17:26;9.00;;;9.00;;
76758;SDS011;65701;45.588;5.186;2023-07-20T01:19:52;5.00;;;5.00;;
76758;SDS011;65701;45.588;5.186;2023-07-20T01:33:26;10.25;;;7.25;;
76758;SDS011;65701;45.588;5.186;2023-07-20T01:35:55;4.75;;;4.75;;
76758;SDS011;65701;45.588;5.186;2023-07-20T01:38:23;5.25;;;4.50;;
76758;SDS011;65701;45.588;5.186;2023-07-20T01:40:49;6.00;;;5.00;;
76758;SDS011;65701;45.588;5.186;2023-07-20T01:43:16;4.00;;;4.00;;
76758;SDS011;65701;45.588;5.186;2023-07-20T01:45:42;3.00;;;3.00;;
76758;SDS011;65701;45.588;5.186;2023-07-20T01:48:08;5.50;;;4.00;;
76758;SDS011;65701;45.588;5.186;2023-07-20T01:50:34;3.75;;;3.75;;
76758;SDS011;65701;45.588;5.186;2023-07-20T01:52:59;3.50;;;3.50;;
76758;SDS011;65701;45.588;5.186;2023-07-20T01:55:25;5.00;;;2.25;;
76758;SDS011;65701;45.588;5.186;2023-07-20T01:57:51;1.75;;;1.75;;
76758;SDS011;65701;45.588;5.186;2023-07-20T02:00:16;1.75;;;1.75;;
76758;SDS011;65701;45.588;5.186;2023-07-20T02:02:44;2.25;;;2.25;;
76758;SDS011;65701;45.588;5.186;2023-07-20T02:05:09;3.25;;;2.25;;
76758;SDS011;65701;45.588;5.186;2023-07-20T02:07:35;1.75;;;1.75;;
76758;SDS011;65701;45.588;5.186;2023-07-20T02:10:00;2.00;;;2.00;;
76758;SDS011;65701;45.588;5.186;2023-07-20T02:12:26;1.50;;;1.50;;
76758;SDS011;65701;45.588;5.186;2023-07-20T02:14:51;4.00;;;2.00;;
76758;SDS011;65701;45.588;5.186;2023-07-20T02:17:18;2.00;;;2.00;;
76758;SDS011;65701;45.588;5.186;2023-07-20T02:19:43;2.00;;;2.00;;
76758;SDS011;65701;45.588;5.186;2023-07-20T02:22:09;2.00;;;2.00;;
76758;SDS011;65701;45.588;5.186;2023-07-20T02:24:34;2.25;;;1.25;;
76758;SDS011;65701;45.588;5.186;2023-07-20T02:27:00;1.00;;;1.00;;
76758;SDS011;65701;45.588;5.186;2023-07-20T02:29:25;3.00;;;1.25;;
76758;SDS011;65701;45.588;5.186;2023-07-20T02:31:50;2.50;;;2.50;;
76758;SDS011;65701;45.588;5.186;2023-07-20T02:34:16;3.00;;;2.00;;
76758;SDS011;65701;45.588;5.186;2023-07-20T02:36:41;2.25;;;2.25;;
76758;SDS011;65701;45.588;5.186;2023-07-20T02:39:07;1.00;;;1.00;;
76758;SDS011;65701;45.588;5.186;2023-07-20T02:41:33;2.00;;;2.00;;
76758;SDS011;65701;45.588;5.186;2023-07-20T02:43:59;3.50;;;2.50;;
76758;SDS011;65701;45.588;5.186;2023-07-20T02:46:26;1.25;;;1.25;;
76758;SDS011;65701;45.588;5.186;2023-07-20T02:48:51;2.50;;;2.50;;
76758;SDS011;65701;45.588;5.186;2023-07-20T02:51:17;2.00;;;1.25;;
76758;SDS011;65701;45.588;5.186;2023-07-20T02:53:42;2.00;;;2.00;;
76758;SDS011;65701;45.588;5.186;2023-07-20T02:56:08;4.00;;;2.00;;
76758;SDS011;65701;45.588;5.186;2023-07-20T02:58:34;1.00;;;1.00;;
76758;SDS011;65701;45.588;5.186;2023-07-20T03:01:03;2.00;;;2.00;;
76758;SDS011;65701;45.588;5.186;2023-07-20T03:03:29;2.00;;;2.00;;
76758;SDS011;65701;45.588;5.186;2023-07-20T03:05:54;2.00;;;1.75;;
76758;SDS011;65701;45.588;5.186;2023-07-20T03:08:21;1.75;;;1.75;;
76758;SDS011;65701;45.588;5.186;2023-07-20T03:10:47;1.50;;;1.50;;
76758;SDS011;65701;45.588;5.186;2023-07-20T03:13:12;1.25;;;1.25;;
76758;SDS011;65701;45.588;5.186;2023-07-20T03:15:39;1.00;;;1.00;;
76758;SDS011;65701;45.588;5.186;2023-07-20T03:18:04;2.75;;;2.75;;
76758;SDS011;65701;45.588;5.186;2023-07-20T03:20:30;1.00;;;1.00;;
76758;SDS011;65701;45.588;5.186;2023-07-20T03:22:56;1.75;;;1.00;;
76758;SDS011;65701;45.588;5.186;2023-07-20T03:25:22;2.00;;;1.50;;
76758;SDS011;65701;45.588;5.186;2023-07-20T03:27:47;1.50;;;1.50;;
76758;SDS011;65701;45.588;5.186;2023-07-20T03:30:13;1.75;;;1.75;;
76758;SDS011;65701;45.588;5.186;2023-07-20T03:32:38;4.75;;;2.00;;
76758;SDS011;65701;45.588;5.186;2023-07-20T03:35:04;1.00;;;1.00;;
76758;SDS011;65701;45.588;5.186;2023-07-20T03:37:30;2.75;;;1.75;;
76758;SDS011;65701;45.588;5.186;2023-07-20T03:39:55;2.00;;;2.00;;
76758;SDS011;65701;45.588;5.186;2023-07-20T03:42:21;2.00;;;2.00;;
76758;SDS011;65701;45.588;5.186;2023-07-20T03:44:46;2.00;;;2.00;;
76758;SDS011;65701;45.588;5.186;2023-07-20T03:47:11;1.75;;;1.75;;
76758;SDS011;65701;45.588;5.186;2023-07-20T03:49:37;4.50;;;2.50;;
76758;SDS011;65701;45.588;5.186;2023-07-20T03:52:02;1.25;;;1.25;;
76758;SDS011;65701;45.588;5.186;2023-07-20T03:54:28;2.50;;;2.00;;
76758;SDS011;65701;45.588;5.186;2023-07-20T03:56:54;1.25;;;1.25;;
76758;SDS011;65701;45.588;5.186;2023-07-20T03:59:20;2.00;;;1.00;;
76758;SDS011;65701;45.588;5.186;2023-07-20T04:01:45;2.00;;;2.00;;
76758;SDS011;65701;45.588;5.186;2023-07-20T04:04:10;2.00;;;2.00;;
76758;SDS011;65701;45.588;5.186;2023-07-20T04:06:36;1.50;;;1.50;;
76758;SDS011;65701;45.588;5.186;2023-07-20T04:09:02;1.00;;;1.00;;
76758;SDS011;65701;45.588;5.186;2023-07-20T04:11:30;2.75;;;2.75;;
76758;SDS011;65701;45.588;5.186;2023-07-20T04:13:55;2.25;;;2.25;;
76758;SDS011;65701;45.588;5.186;2023-07-20T04:16:21;2.00;;;2.00;;
76758;SDS011;65701;45.588;5.186;2023-07-20T04:18:47;2.75;;;1.00;;
76758;SDS011;65701;45.588;5.186;2023-07-20T04:21:12;2.50;;;1.75;;
76758;SDS011;65701;45.588;5.186;2023-07-20T04:23:37;0.75;;;0.75;;
76758;SDS011;65701;45.588;5.186;2023-07-20T04:26:03;2.00;;;2.00;;
76758;SDS011;65701;45.588;5.186;2023-07-20T04:28:28;3.75;;;1.75;;
76758;SDS011;65701;45.588;5.186;2023-07-20T04:30:54;1.25;;;1.25;;
76758;SDS011;65701;45.588;5.186;2023-07-20T04:33:19;2.25;;;2.25;;
76758;SDS011;65701;45.588;5.186;2023-07-20T04:35:46;2.00;;;2.00;;
76758;SDS011;65701;45.588;5.186;2023-07-20T04:38:18;1.00;;;1.00;;
76758;SDS011;65701;45.588;5.186;2023-07-20T04:40:45;2.50;;;1.00;;
76758;SDS011;65701;45.588;5.186;2023-07-20T04:43:11;1.50;;;1.50;;
76758;SDS011;65701;45.588;5.186;2023-07-20T04:45:37;1.75;;;1.75;;
76758;SDS011;65701;45.588;5.186;2023-07-20T04:48:02;2.00;;;2.00;;
76758;SDS011;65701;45.588;5.186;2023-07-20T04:50:28;4.00;;;3.00;;
76758;SDS011;65701;45.588;5.186;2023-07-20T04:52:54;2.50;;;1.00;;
76758;SDS011;65701;45.588;5.186;2023-07-20T04:55:19;4.00;;;2.50;;
76758;SDS011;65701;45.588;5.186;2023-07-20T04:57:44;3.00;;;3.00;;
76758;SDS011;65701;45.588;5.186;2023-07-20T05:00:10;1.00;;;1.00;;
76758;SDS011;65701;45.588;5.186;2023-07-20T05:02:38;3.25;;;1.50;;
76758;SDS011;65701;45.588;5.186;2023-07-20T05:05:03;3.00;;;2.00;;
76758;SDS011;65701;45.588;5.186;2023-07-20T05:07:31;2.00;;;2.00;;
76758;SDS011;65701;45.588;5.186;2023-07-20T05:09:57;1.50;;;1.00;;
76758;SDS011;65701;45.588;5.186;2023-07-20T05:12:22;2.00;;;2.00;;
76758;SDS011;65701;45.588;5.186;2023-07-20T05:14:48;1.25;;;1.25;;
76758;SDS011;65701;45.588;5.186;2023-07-20T05:17:13;1.00;;;1.00;;
76758;SDS011;65701;45.588;5.186;2023-07-20T05:19:39;1.75;;;1.75;;
76758;SDS011;65701;45.588;5.186;2023-07-20T05:22:04;2.00;;;2.00;;
76758;SDS011;65701;45.588;5.186;2023-07-20T05:24:30;2.25;;;2.25;;
76758;SDS011;65701;45.588;5.186;2023-07-20T05:26:57;2.25;;;2.25;;
76758;SDS011;65701;45.588;5.186;2023-07-20T05:29:23;3.00;;;2.00;;
76758;SDS011;65701;45.588;5.186;2023-07-20T05:31:49;1.00;;;1.00;;
76758;SDS011;65701;45.588;5.186;2023-07-20T05:34:14;2.00;;;2.00;;
76758;SDS011;65701;45.588;5.186;2023-07-20T05:36:40;2.00;;;1.50;;
76758;SDS011;65701;45.588;5.186;2023-07-20T05:39:05;1.00;;;1.00;;
76758;SDS011;65701;45.588;5.186;2023-07-20T05:41:31;1.00;;;1.00;;
76758;SDS011;65701;45.588;5.186;2023-07-20T05:43:56;2.00;;;2.00;;
76758;SDS011;65701;45.588;5.186;2023-07-20T05:46:22;2.00;;;2.00;;
76758;SDS011;65701;45.588;5.186;2023-07-20T05:48:49;3.00;;;3.00;;
76758;SDS011;65701;45.588;5.186;2023-07-20T05:51:14;2.00;;;0.00;;
76758;SDS011;65701;45.588;5.186;2023-07-20T05:53:40;2.50;;;1.25;;
76758;SDS011;65701;45.588;5.186;2023-07-20T05:56:06;1.75;;;1.75;;
76758;SDS011;65701;45.588;5.186;2023-07-20T05:58:35;1.50;;;1.50;;
76758;SDS011;65701;45.588;5.186;2023-07-20T06:01:00;2.00;;;2.00;;
76758;SDS011;65701;45.588;5.186;2023-07-20T06:03:27;3.00;;;3.00;;
76758;SDS011;65701;45.588;5.186;2023-07-20T06:05:57;2.00;;;2.00;;
76758;SDS011;65701;45.588;5.186;2023-07-20T06:08:24;1.00;;;1.00;;
76758;SDS011;65701;45.588;5.186;2023-07-20T06:10:50;2.00;;;2.00;;
76758;SDS011;65701;45.588;5.186;2023-07-20T06:13:18;2.25;;;2.00;;
76758;SDS011;65701;45.588;5.186;2023-07-20T06:15:44;2.25;;;2.25;;
76758;SDS011;65701;45.588;5.186;2023-07-20T06:18:09;2.25;;;2.00;;
76758;SDS011;65701;45.588;5.186;2023-07-20T06:20:35;3.50;;;2.00;;
76758;SDS011;65701;45.588;5.186;2023-07-20T06:23:00;4.25;;;3.00;;
76758;SDS011;65701;45.588;5.186;2023-07-20T06:25:26;1.00;;;1.00;;
76758;SDS011;65701;45.588;5.186;2023-07-20T06:27:51;2.00;;;2.00;;
76758;SDS011;65701;45.588;5.186;2023-07-20T06:30:17;2.00;;;2.00;;
76758;SDS011;65701;45.588;5.186;2023-07-20T06:32:43;1.25;;;1.25;;
76758;SDS011;65701;45.588;5.186;2023-07-20T06:35:08;3.00;;;3.00;;
76758;SDS011;65701;45.588;5.186;2023-07-20T06:37:34;1.00;;;1.00;;
76758;SDS011;65701;45.588;5.186;2023-07-20T06:40:00;2.50;;;2.50;;
76758;SDS011;65701;45.588;5.186;2023-07-20T06:42:26;1.50;;;1.50;;
76758;SDS011;65701;45.588;5.186;2023-07-20T06:44:52;1.00;;;1.00;;
76758;SDS011;65701;45.588;5.186;2023-07-20T06:47:17;3.00;;;1.00;;
76758;SDS011;65701;45.588;5.186;2023-07-20T06:49:43;1.00;;;1.00;;
76758;SDS011;65701;45.588;5.186;2023-07-20T06:52:08;3.00;;;3.00;;
76758;SDS011;65701;45.588;5.186;2023-07-20T06:54:34;1.00;;;1.00;;
76758;SDS011;65701;45.588;5.186;2023-07-20T06:56:59;1.25;;;1.25;;
76758;SDS011;65701;45.588;5.186;2023-07-20T06:59:25;1.50;;;1.50;;
76758;SDS011;65701;45.588;5.186;2023-07-20T07:01:50;2.50;;;2.50;;
76758;SDS011;65701;45.588;5.186;2023-07-20T07:04:16;2.00;;;2.00;;
76758;SDS011;65701;45.588;5.186;2023-07-20T07:06:41;1.50;;;1.50;;
76758;SDS011;65701;45.588;5.186;2023-07-20T07:09:07;3.00;;;1.00;;
76758;SDS011;65701;45.588;5.186;2023-07-20T07:11:33;2.00;;;2.00;;
76758;SDS011;65701;45.588;5.186;2023-07-20T07:13:59;2.25;;;2.00;;
76758;SDS011;65701;45.588;5.186;2023-07-20T07:16:25;2.00;;;2.00;;
76758;SDS011;65701;45.588;5.186;2023-07-20T07:18:50;2.75;;;1.75;;
76758;SDS011;65701;45.588;5.186;2023-07-20T07:21:16;1.50;;;1.50;;
76758;SDS011;65701;45.588;5.186;2023-07-20T07:23:42;1.50;;;1.50;;
76758;SDS011;65701;45.588;5.186;2023-07-20T07:26:08;1.00;;;1.00;;
76758;SDS011;65701;45.588;5.186;2023-07-20T07:28:34;1.75;;;1.75;;
76758;SDS011;65701;45.588;5.186;2023-07-20T07:31:00;5.75;;;3.25;;
76758;SDS011;65701;45.588;5.186;2023-07-20T07:33:26;1.00;;;1.00;;
76758;SDS011;65701;45.588;5.186;2023-07-20T07:35:51;2.00;;;2.00;;
76758;SDS011;65701;45.588;5.186;2023-07-20T07:38:17;4.00;;;2.00;;
76758;SDS011;65701;45.588;5.186;2023-07-20T07:40:43;1.50;;;1.50;;
76758;SDS011;65701;45.588;5.186;2023-07-20T07:43:09;2.00;;;2.00;;
76758;SDS011;65701;45.588;5.186;2023-07-20T07:45:34;2.00;;;2.00;;
76758;SDS011;65701;45.588;5.186;2023-07-20T07:48:04;2.00;;;2.00;;
76758;SDS011;65701;45.588;5.186;2023-07-20T07:50:33;3.00;;;3.00;;
76758;SDS011;65701;45.588;5.186;2023-07-20T07:52:59;2.50;;;2.00;;
76758;SDS011;65701;45.588;5.186;2023-07-20T07:55:25;2.00;;;2.00;;
76758;SDS011;65701;45.588;5.186;2023-07-20T07:57:53;3.00;;;3.00;;
76758;SDS011;65701;45.588;5.186;2023-07-20T08:00:19;3.00;;;1.00;;
76758;SDS011;65701;45.588;5.186;2023-07-20T08:02:45;1.75;;;1.75;;
76758;SDS011;65701;45.588;5.186;2023-07-20T08:05:13;3.50;;;2.50;;
76758;SDS011;65701;45.588;5.186;2023-07-20T08:07:38;2.75;;;2.75;;
76758;SDS011;65701;45.588;5.186;2023-07-20T08:10:04;3.00;;;3.00;;
76758;SDS011;65701;45.588;5.186;2023-07-20T08:12:30;3.00;;;3.00;;
76758;SDS011;65701;45.588;5.186;2023-07-20T08:14:56;3.00;;;2.75;;
76758;SDS011;65701;45.588;5.186;2023-07-20T08:17:21;4.00;;;3.00;;
76758;SDS011;65701;45.588;5.186;2023-07-20T08:19:47;2.00;;;2.00;;
76758;SDS011;65701;45.588;5.186;2023-07-20T08:22:13;4.00;;;1.50;;
76758;SDS011;65701;45.588;5.186;2023-07-20T08:24:39;1.00;;;1.00;;
76758;SDS011;65701;45.588;5.186;2023-07-20T08:27:05;1.75;;;1.75;;
76758;SDS011;65701;45.588;5.186;2023-07-20T08:29:31;2.00;;;2.00;;
76758;SDS011;65701;45.588;5.186;2023-07-20T08:31:56;2.00;;;2.00;;
76758;SDS011;65701;45.588;5.186;2023-07-20T08:34:21;2.50;;;1.50;;
76758;SDS011;65701;45.588;5.186;2023-07-20T08:36:47;1.00;;;1.00;;
76758;SDS011;65701;45.588;5.186;2023-07-20T08:39:12;1.00;;;1.00;;
76758;SDS011;65701;45.588;5.186;2023-07-20T08:41:38;1.50;;;0.00;;
76758;SDS011;65701;45.588;5.186;2023-07-20T08:44:04;2.25;;;2.25;;
76758;SDS011;65701;45.588;5.186;2023-07-20T08:46:30;1.00;;;1.00;;
76758;SDS011;65701;45.588;5.186;2023-07-20T08:48:57;1.75;;;1.75;;
76758;SDS011;65701;45.588;5.186;2023-07-20T08:51:23;1.00;;;1.00;;
76758;SDS011;65701;45.588;5.186;2023-07-20T08:53:50;1.25;;;1.25;;
76758;SDS011;65701;45.588;5.186;2023-07-20T08:56:16;1.00;;;1.00;;
76758;SDS011;65701;45.588;5.186;2023-07-20T08:58:44;1.00;;;1.00;;
76758;SDS011;65701;45.588;5.186;2023-07-20T09:01:11;4.00;;;2.25;;
76758;SDS011;65701;45.588;5.186;2023-07-20T09:03:37;3.75;;;1.25;;
76758;SDS011;65701;45.588;5.186;2023-07-20T09:06:05;2.00;;;2.00;;
76758;SDS011;65701;45.588;5.186;2023-07-20T09:08:31;4.00;;;2.00;;
76758;SDS011;65701;45.588;5.186;2023-07-20T09:10:56;1.00;;;1.00;;
76758;SDS011;65701;45.588;5.186;2023-07-20T09:13:22;2.00;;;2.00;;
76758;SDS011;65701;45.588;5.186;2023-07-20T09:15:53;2.00;;;2.00;;
76758;SDS011;65701;45.588;5.186;2023-07-20T09:18:23;2.00;;;2.00;;
76758;SDS011;65701;45.588;5.186;2023-07-20T09:20:49;2.00;;;2.00;;
76758;SDS011;65701;45.588;5.186;2023-07-20T09:23:15;2.00;;;1.50;;
76758;SDS011;65701;45.588;5.186;2023-07-20T09:25:40;2.00;;;2.00;;
76758;SDS011;65701;45.588;5.186;2023-07-20T09:28:06;1.75;;;1.75;;
76758;SDS011;65701;45.588;5.186;2023-07-20T09:30:31;2.00;;;2.00;;
76758;SDS011;65701;45.588;5.186;2023-07-20T09:32:57;2.50;;;1.50;;
76758;SDS011;65701;45.588;5.186;2023-07-20T09:35:23;3.00;;;3.00;;
76758;SDS011;65701;45.588;5.186;2023-07-20T09:37:51;0.75;;;0.75;;
76758;SDS011;65701;45.588;5.186;2023-07-20T09:40:19;2.75;;;2.00;;
76758;SDS011;65701;45.588;5.186;2023-07-20T09:42:46;2.50;;;1.00;;
76758;SDS011;65701;45.588;5.186;2023-07-20T09:45:13;1.00;;;1.00;;
76758;SDS011;65701;45.588;5.186;2023-07-20T09:47:38;1.00;;;1.00;;
76758;SDS011;65701;45.588;5.186;2023-07-20T09:50:05;1.00;;;1.00;;
76758;SDS011;65701;45.588;5.186;2023-07-20T09:52:39;0.75;;;0.75;;
76758;SDS011;65701;45.588;5.186;2023-07-20T09:55:12;1.00;;;1.00;;
76758;SDS011;65701;45.588;5.186;2023-07-20T09:57:38;1.00;;;0.00;;
76758;SDS011;65701;45.588;5.186;2023-07-20T10:00:05;1.00;;;1.00;;
76758;SDS011;65701;45.588;5.186;2023-07-20T10:02:37;2.00;;;2.00;;
76758;SDS011;65701;45.588;5.186;2023-07-20T10:05:08;1.00;;;1.00;;
76758;SDS011;65701;45.588;5.186;2023-07-20T10:07:36;1.00;;;1.00;;
76758;SDS011;65701;45.588;5.186;2023-07-20T10:10:08;0.75;;;0.75;;
76758;SDS011;65701;45.588;5.186;2023-07-20T10:12:36;1.25;;;1.25;;
76758;SDS011;65701;45.588;5.186;2023-07-20T10:15:11;1.00;;;1.00;;
76758;SDS011;65701;45.588;5.186;2023-07-20T10:20:39;1.00;;;1.00;;
76758;SDS011;65701;45.588;5.186;2023-07-20T10:23:09;1.50;;;1.25;;
76758;SDS011;65701;45.588;5.186;2023-07-20T10:25:35;1.75;;;1.75;;
76758;SDS011;65701;45.588;5.186;2023-07-20T10:28:03;1.00;;;1.00;;
76758;SDS011;65701;45.588;5.186;2023-07-20T10:30:30;3.00;;;1.75;;
76758;SDS011;65701;45.588;5.186;2023-07-20T10:32:56;1.50;;;1.50;;
76758;SDS011;65701;45.588;5.186;2023-07-20T10:35:22;1.00;;;1.00;;
76758;SDS011;65701;45.588;5.186;2023-07-20T10:37:52;2.75;;;2.00;;
76758;SDS011;65701;45.588;5.186;2023-07-20T10:40:25;1.75;;;1.75;;
76758;SDS011;65701;45.588;5.186;2023-07-20T10:42:55;5.25;;;2.75;;
76758;SDS011;65701;45.588;5.186;2023-07-20T10:45:42;1.25;;;1.25;;
76758;SDS011;65701;45.588;5.186;2023-07-20T10:48:17;2.75;;;2.75;;
76758;SDS011;65701;45.588;5.186;2023-07-20T10:50:44;2.25;;;2.25;;
76758;SDS011;65701;45.588;5.186;2023-07-20T10:53:14;3.00;;;2.00;;
76758;SDS011;65701;45.588;5.186;2023-07-20T10:55:41;2.00;;;2.00;;
76758;SDS011;65701;45.588;5.186;2023-07-20T10:58:12;2.00;;;2.00;;
76758;SDS011;65701;45.588;5.186;2023-07-20T11:01:00;1.00;;;1.00;;
76758;SDS011;65701;45.588;5.186;2023-07-20T11:03:36;1.25;;;1.25;;
76758;SDS011;65701;45.588;5.186;2023-07-20T11:08:50;2.25;;;2.25;;
76758;SDS011;65701;45.588;5.186;2023-07-20T11:11:25;2.00;;;2.00;;
76758;SDS011;65701;45.588;5.186;2023-07-20T11:16:40;1.00;;;1.00;;
76758;SDS011;65701;45.588;5.186;2023-07-20T11:21:44;1.00;;;1.00;;
76758;SDS011;65701;45.588;5.186;2023-07-20T11:24:11;1.25;;;1.25;;
76758;SDS011;65701;45.588;5.186;2023-07-20T11:26:48;3.00;;;3.00;;
76758;SDS011;65701;45.588;5.186;2023-07-20T11:29:18;2.25;;;2.25;;
76758;SDS011;65701;45.588;5.186;2023-07-20T11:31:50;1.25;;;1.25;;
76758;SDS011;65701;45.588;5.186;2023-07-20T11:34:19;2.50;;;2.00;;
76758;SDS011;65701;45.588;5.186;2023-07-20T11:36:46;2.00;;;2.00;;
76758;SDS011;65701;45.588;5.186;2023-07-20T11:39:13;4.00;;;2.25;;
76758;SDS011;65701;45.588;5.186;2023-07-20T11:41:48;3.25;;;1.75;;
76758;SDS011;65701;45.588;5.186;2023-07-20T11:44:20;2.00;;;2.00;;
76758;SDS011;65701;45.588;5.186;2023-07-20T11:47:10;1.00;;;1.00;;
76758;SDS011;65701;45.588;5.186;2023-07-20T11:49:43;1.00;;;1.00;;
76758;SDS011;65701;45.588;5.186;2023-07-20T11:52:18;1.00;;;1.00;;
76758;SDS011;65701;45.588;5.186;2023-07-20T11:54:43;1.00;;;1.00;;
76758;SDS011;65701;45.588;5.186;2023-07-20T11:57:16;2.50;;;1.00;;
76758;SDS011;65701;45.588;5.186;2023-07-20T11:59:56;2.00;;;1.00;;
76758;SDS011;65701;45.588;5.186;2023-07-20T12:02:23;1.00;;;1.00;;
76758;SDS011;65701;45.588;5.186;2023-07-20T12:04:52;2.00;;;2.00;;
76758;SDS011;65701;45.588;5.186;2023-07-20T12:07:19;2.00;;;2.00;;
76758;SDS011;65701;45.588;5.186;2023-07-20T12:12:35;1.75;;;1.75;;
76758;SDS011;65701;45.588;5.186;2023-07-20T12:15:16;2.50;;;2.50;;
76758;SDS011;65701;45.588;5.186;2023-07-20T12:17:44;1.00;;;1.00;;
76758;SDS011;65701;45.588;5.186;2023-07-20T12:20:10;2.00;;;1.00;;
76758;SDS011;65701;45.588;5.186;2023-07-20T12:22:40;1.50;;;1.50;;
76758;SDS011;65701;45.588;5.186;2023-07-20T12:25:06;1.00;;;1.00;;
76758;SDS011;65701;45.588;5.186;2023-07-20T12:27:33;2.50;;;2.50;;
76758;SDS011;65701;45.588;5.186;2023-07-20T12:30:06;1.00;;;1.00;;
76758;SDS011;65701;45.588;5.186;2023-07-20T12:32:32;3.00;;;2.00;;
76758;SDS011;65701;45.588;5.186;2023-07-20T12:34:58;2.00;;;2.00;;
76758;SDS011;65701;45.588;5.186;2023-07-20T12:37:27;2.00;;;2.00;;
76758;SDS011;65701;45.588;5.186;2023-07-20T12:39:53;1.00;;;1.00;;
76758;SDS011;65701;45.588;5.186;2023-07-20T12:42:19;2.00;;;2.00;;
76758;SDS011;65701;45.588;5.186;2023-07-20T12:44:44;2.00;;;2.00;;
76758;SDS011;65701;45.588;5.186;2023-07-20T12:47:09;4.00;;;2.00;;
76758;SDS011;65701;45.588;5.186;2023-07-20T12:49:35;2.00;;;2.00;;
76758;SDS011;65701;45.588;5.186;2023-07-20T12:52:01;2.00;;;2.00;;
76758;SDS011;65701;45.588;5.186;2023-07-20T12:54:26;1.75;;;1.75;;
76758;SDS011;65701;45.588;5.186;2023-07-20T12:56:51;2.00;;;2.00;;
76758;SDS011;65701;45.588;5.186;2023-07-20T12:59:17;3.00;;;1.00;;
76758;SDS011;65701;45.588;5.186;2023-07-20T13:01:43;1.00;;;1.00;;
76758;SDS011;65701;45.588;5.186;2023-07-20T13:04:09;2.00;;;2.00;;
76758;SDS011;65701;45.588;5.186;2023-07-20T13:06:35;1.00;;;1.00;;
76758;SDS011;65701;45.588;5.186;2023-07-20T13:09:00;2.00;;;2.00;;
76758;SDS011;65701;45.588;5.186;2023-07-20T13:11:26;1.75;;;1.75;;
76758;SDS011;65701;45.588;5.186;2023-07-20T13:13:53;0.75;;;0.25;;
76758;SDS011;65701;45.588;5.186;2023-07-20T13:16:18;1.00;;;1.00;;
76758;SDS011;65701;45.588;5.186;2023-07-20T13:18:44;2.75;;;2.75;;
76758;SDS011;65701;45.588;5.186;2023-07-20T13:21:09;2.00;;;2.00;;
76758;SDS011;65701;45.588;5.186;2023-07-20T13:23:36;2.00;;;2.00;;
76758;SDS011;65701;45.588;5.186;2023-07-20T13:26:02;1.00;;;1.00;;
76758;SDS011;65701;45.588;5.186;2023-07-20T13:28:29;1.50;;;1.50;;
76758;SDS011;65701;45.588;5.186;2023-07-20T13:30:55;2.00;;;2.00;;
76758;SDS011;65701;45.588;5.186;2023-07-20T13:33:21;2.00;;;2.00;;
76758;SDS011;65701;45.588;5.186;2023-07-20T13:35:47;1.00;;;1.00;;
76758;SDS011;65701;45.588;5.186;2023-07-20T13:38:12;1.00;;;1.00;;
76758;SDS011;65701;45.588;5.186;2023-07-20T13:40:39;1.00;;;1.00;;
76758;SDS011;65701;45.588;5.186;2023-07-20T13:43:04;1.25;;;1.25;;
76758;SDS011;65701;45.588;5.186;2023-07-20T13:45:29;2.00;;;2.00;;
76758;SDS011;65701;45.588;5.186;2023-07-20T13:47:55;1.00;;;1.00;;
76758;SDS011;65701;45.588;5.186;2023-07-20T13:50:20;1.75;;;1.75;;
76758;SDS011;65701;45.588;5.186;2023-07-20T13:52:46;2.00;;;1.00;;
76758;SDS011;65701;45.588;5.186;2023-07-20T13:55:12;1.00;;;1.00;;
76758;SDS011;65701;45.588;5.186;2023-07-20T13:57:37;5.00;;;1.75;;
76758;SDS011;65701;45.588;5.186;2023-07-20T14:00:03;1.25;;;1.25;;
76758;SDS011;65701;45.588;5.186;2023-07-20T14:02:29;1.00;;;1.00;;
76758;SDS011;65701;45.588;5.186;2023-07-20T14:04:54;3.00;;;1.00;;
76758;SDS011;65701;45.588;5.186;2023-07-20T14:07:21;1.75;;;1.00;;
76758;SDS011;65701;45.588;5.186;2023-07-20T14:09:46;2.00;;;2.00;;
76758;SDS011;65701;45.588;5.186;2023-07-20T14:12:12;1.00;;;1.00;;
76758;SDS011;65701;45.588;5.186;2023-07-20T14:14:39;2.75;;;1.25;;
76758;SDS011;65701;45.588;5.186;2023-07-20T14:17:06;2.00;;;2.00;;
76758;SDS011;65701;45.588;5.186;2023-07-20T14:19:32;3.50;;;2.00;;
76758;SDS011;65701;45.588;5.186;2023-07-20T14:21:57;1.50;;;1.00;;
76758;SDS011;65701;45.588;5.186;2023-07-20T14:24:24;1.25;;;1.25;;
76758;SDS011;65701;45.588;5.186;2023-07-20T14:26:51;0.25;;;0.25;;
76758;SDS011;65701;45.588;5.186;2023-07-20T14:29:16;1.50;;;1.50;;
76758;SDS011;65701;45.588;5.186;2023-07-20T14:31:43;4.00;;;2.00;;
76758;SDS011;65701;45.588;5.186;2023-07-20T14:34:09;1.00;;;1.00;;
76758;SDS011;65701;45.588;5.186;2023-07-20T14:36:36;3.50;;;2.00;;
76758;SDS011;65701;45.588;5.186;2023-07-20T14:39:01;2.00;;;2.00;;
76758;SDS011;65701;45.588;5.186;2023-07-20T14:41:27;1.50;;;1.50;;
76758;SDS011;65701;45.588;5.186;2023-07-20T14:43:52;1.00;;;1.00;;
76758;SDS011;65701;45.588;5.186;2023-07-20T14:46:18;2.75;;;2.00;;
76758;SDS011;65701;45.588;5.186;2023-07-20T14:52:09;1.00;;;1.00;;
76758;SDS011;65701;45.588;5.186;2023-07-20T14:54:35;1.75;;;1.25;;
76758;SDS011;65701;45.588;5.186;2023-07-20T14:57:00;1.00;;;1.00;;
76758;SDS011;65701;45.588;5.186;2023-07-20T14:59:29;1.00;;;1.00;;
76758;SDS011;65701;45.588;5.186;2023-07-20T15:01:54;1.25;;;1.25;;
76758;SDS011;65701;45.588;5.186;2023-07-20T15:04:19;1.75;;;1.75;;
76758;SDS011;65701;45.588;5.186;2023-07-20T15:06:45;1.00;;;1.00;;
76758;SDS011;65701;45.588;5.186;2023-07-20T15:09:10;2.00;;;2.00;;
76758;SDS011;65701;45.588;5.186;2023-07-20T15:11:36;1.00;;;1.00;;
76758;SDS011;65701;45.588;5.186;2023-07-20T15:14:02;2.00;;;2.00;;
76758;SDS011;65701;45.588;5.186;2023-07-20T15:16:27;1.25;;;1.25;;
76758;SDS011;65701;45.588;5.186;2023-07-20T15:18:53;0.25;;;0.25;;
76758;SDS011;65701;45.588;5.186;2023-07-20T15:21:18;1.00;;;1.00;;